sensor_id;sensor_type;location;lat;lon;timestamp;P1;durP1;ratioP1;P2;durP2;ratioP2
48552;SDS011;34335;51.566;6.994;2023-05-29T00:01:18;3.93;;;1.53;;
48552;SDS011;34335;51.566;6.994;2023-05-29T00:03:46;3.08;;;1.90;;
48552;SDS011;34335;51.566;6.994;2023-05-29T00:06:11;4.18;;;1.20;;
48552;SDS011;34335;51.566;6.994;2023-05-29T00:08:37;2.55;;;1.00;;
48552;SDS011;34335;51.566;6.994;2023-05-29T00:11:02;2.42;;;1.00;;
48552;SDS011;34335;51.566;6.994;2023-05-29T00:13:28;1.88;;;0.88;;
48552;SDS011;34335;51.566;6.994;2023-05-29T00:15:53;5.35;;;1.48;;
48552;SDS011;34335;51.566;6.994;2023-05-29T00:18:18;3.97;;;1.17;;
48552;SDS011;34335;51.566;6.994;2023-05-29T00:20:44;2.57;;;1.00;;
48552;SDS011;34335;51.566;6.994;2023-05-29T00:23:09;2.47;;;1.17;;
48552;SDS011;34335;51.566;6.994;2023-05-29T00:25:35;3.15;;;1.10;;
48552;SDS011;34335;51.566;6.994;2023-05-29T00:28:00;4.10;;;1.38;;
48552;SDS011;34335;51.566;6.994;2023-05-29T00:30:26;2.88;;;1.00;;
48552;SDS011;34335;51.566;6.994;2023-05-29T00:32:51;2.38;;;1.10;;
48552;SDS011;34335;51.566;6.994;2023-05-29T00:35:20;3.38;;;1.20;;
48552;SDS011;34335;51.566;6.994;2023-05-29T00:37:45;1.70;;;0.95;;
48552;SDS011;34335;51.566;6.994;2023-05-29T00:40:10;1.13;;;0.60;;
48552;SDS011;34335;51.566;6.994;2023-05-29T00:42:36;3.50;;;1.45;;
48552;SDS011;34335;51.566;6.994;2023-05-29T00:45:02;1.08;;;0.77;;
48552;SDS011;34335;51.566;6.994;2023-05-29T00:47:28;2.53;;;1.27;;
48552;SDS011;34335;51.566;6.994;2023-05-29T00:49:54;1.52;;;0.90;;
48552;SDS011;34335;51.566;6.994;2023-05-29T00:52:21;1.80;;;1.00;;
48552;SDS011;34335;51.566;6.994;2023-05-29T00:54:47;4.93;;;1.40;;
48552;SDS011;34335;51.566;6.994;2023-05-29T00:57:13;1.55;;;1.10;;
48552;SDS011;34335;51.566;6.994;2023-05-29T00:59:41;2.95;;;1.25;;
48552;SDS011;34335;51.566;6.994;2023-05-29T01:02:07;2.50;;;1.00;;
48552;SDS011;34335;51.566;6.994;2023-05-29T01:04:33;3.47;;;1.40;;
48552;SDS011;34335;51.566;6.994;2023-05-29T01:07:02;3.05;;;1.27;;
48552;SDS011;34335;51.566;6.994;2023-05-29T01:09:30;3.03;;;1.40;;
48552;SDS011;34335;51.566;6.994;2023-05-29T01:12:02;1.95;;;0.80;;
48552;SDS011;34335;51.566;6.994;2023-05-29T01:25:39;2.97;;;1.15;;
48552;SDS011;34335;51.566;6.994;2023-05-29T01:28:16;1.92;;;0.77;;
48552;SDS011;34335;51.566;6.994;2023-05-29T01:30:46;3.88;;;0.93;;
48552;SDS011;34335;51.566;6.994;2023-05-29T01:33:13;1.02;;;0.60;;
48552;SDS011;34335;51.566;6.994;2023-05-29T01:35:39;6.93;;;1.02;;
48552;SDS011;34335;51.566;6.994;2023-05-29T01:38:04;2.13;;;1.08;;
48552;SDS011;34335;51.566;6.994;2023-05-29T01:40:30;2.92;;;1.40;;
48552;SDS011;34335;51.566;6.994;2023-05-29T01:42:55;2.15;;;0.98;;
48552;SDS011;34335;51.566;6.994;2023-05-29T01:45:21;5.53;;;0.70;;
48552;SDS011;34335;51.566;6.994;2023-05-29T01:47:46;2.08;;;0.90;;
48552;SDS011;34335;51.566;6.994;2023-05-29T01:50:13;3.15;;;0.82;;
48552;SDS011;34335;51.566;6.994;2023-05-29T01:52:42;1.55;;;0.80;;
48552;SDS011;34335;51.566;6.994;2023-05-29T01:55:08;2.53;;;0.75;;
48552;SDS011;34335;51.566;6.994;2023-05-29T01:57:33;3.67;;;1.63;;
48552;SDS011;34335;51.566;6.994;2023-05-29T02:00:00;4.57;;;0.93;;
48552;SDS011;34335;51.566;6.994;2023-05-29T02:02:29;4.45;;;1.35;;
48552;SDS011;34335;51.566;6.994;2023-05-29T02:04:55;4.18;;;0.93;;
48552;SDS011;34335;51.566;6.994;2023-05-29T02:07:20;9.98;;;2.28;;
48552;SDS011;34335;51.566;6.994;2023-05-29T02:09:46;2.22;;;0.75;;
48552;SDS011;34335;51.566;6.994;2023-05-29T02:12:11;4.57;;;1.50;;
48552;SDS011;34335;51.566;6.994;2023-05-29T02:14:36;3.53;;;0.77;;
48552;SDS011;34335;51.566;6.994;2023-05-29T02:17:02;2.28;;;0.95;;
48552;SDS011;34335;51.566;6.994;2023-05-29T02:19:27;1.67;;;0.70;;
48552;SDS011;34335;51.566;6.994;2023-05-29T02:21:53;5.37;;;1.67;;
48552;SDS011;34335;51.566;6.994;2023-05-29T02:24:18;2.72;;;0.93;;
48552;SDS011;34335;51.566;6.994;2023-05-29T02:26:44;4.07;;;0.98;;
48552;SDS011;34335;51.566;6.994;2023-05-29T02:29:09;2.38;;;1.20;;
48552;SDS011;34335;51.566;6.994;2023-05-29T02:31:35;4.93;;;0.93;;
48552;SDS011;34335;51.566;6.994;2023-05-29T02:34:01;4.05;;;1.63;;
48552;SDS011;34335;51.566;6.994;2023-05-29T02:36:26;3.43;;;1.07;;
48552;SDS011;34335;51.566;6.994;2023-05-29T02:38:52;6.00;;;0.80;;
48552;SDS011;34335;51.566;6.994;2023-05-29T02:41:18;3.63;;;0.82;;
48552;SDS011;34335;51.566;6.994;2023-05-29T02:43:43;4.57;;;1.37;;
48552;SDS011;34335;51.566;6.994;2023-05-29T02:46:08;6.60;;;1.20;;
48552;SDS011;34335;51.566;6.994;2023-05-29T02:48:34;4.72;;;1.30;;
48552;SDS011;34335;51.566;6.994;2023-05-29T02:50:59;9.20;;;0.80;;
48552;SDS011;34335;51.566;6.994;2023-05-29T02:53:24;4.18;;;0.77;;
48552;SDS011;34335;51.566;6.994;2023-05-29T02:55:50;1.48;;;0.73;;
48552;SDS011;34335;51.566;6.994;2023-05-29T02:58:16;4.32;;;1.20;;
48552;SDS011;34335;51.566;6.994;2023-05-29T03:00:41;6.35;;;1.20;;
48552;SDS011;34335;51.566;6.994;2023-05-29T03:03:06;7.90;;;1.40;;
48552;SDS011;34335;51.566;6.994;2023-05-29T03:05:32;6.13;;;0.93;;
48552;SDS011;34335;51.566;6.994;2023-05-29T03:07:57;5.30;;;1.45;;
48552;SDS011;34335;51.566;6.994;2023-05-29T03:10:22;3.53;;;1.25;;
48552;SDS011;34335;51.566;6.994;2023-05-29T03:12:48;3.03;;;0.80;;
48552;SDS011;34335;51.566;6.994;2023-05-29T03:15:13;7.23;;;1.30;;
48552;SDS011;34335;51.566;6.994;2023-05-29T03:17:39;1.80;;;0.57;;
48552;SDS011;34335;51.566;6.994;2023-05-29T03:20:05;6.15;;;0.85;;
48552;SDS011;34335;51.566;6.994;2023-05-29T03:22:31;5.10;;;0.95;;
48552;SDS011;34335;51.566;6.994;2023-05-29T03:24:57;8.15;;;1.42;;
48552;SDS011;34335;51.566;6.994;2023-05-29T03:27:22;3.67;;;1.52;;
48552;SDS011;34335;51.566;6.994;2023-05-29T03:29:48;4.88;;;1.17;;
48552;SDS011;34335;51.566;6.994;2023-05-29T03:32:13;7.88;;;1.25;;
48552;SDS011;34335;51.566;6.994;2023-05-29T03:34:38;5.23;;;1.33;;
48552;SDS011;34335;51.566;6.994;2023-05-29T03:37:04;1.70;;;0.40;;
48552;SDS011;34335;51.566;6.994;2023-05-29T03:39:30;3.28;;;0.90;;
48552;SDS011;34335;51.566;6.994;2023-05-29T03:41:55;3.20;;;1.30;;
48552;SDS011;34335;51.566;6.994;2023-05-29T03:44:21;8.30;;;1.13;;
48552;SDS011;34335;51.566;6.994;2023-05-29T03:46:46;4.43;;;0.90;;
48552;SDS011;34335;51.566;6.994;2023-05-29T03:49:11;3.30;;;1.45;;
48552;SDS011;34335;51.566;6.994;2023-05-29T03:51:37;6.63;;;1.07;;
48552;SDS011;34335;51.566;6.994;2023-05-29T03:54:02;6.93;;;1.33;;
48552;SDS011;34335;51.566;6.994;2023-05-29T03:56:27;5.10;;;1.10;;
48552;SDS011;34335;51.566;6.994;2023-05-29T03:58:53;3.28;;;1.13;;
48552;SDS011;34335;51.566;6.994;2023-05-29T04:01:18;6.82;;;1.02;;
48552;SDS011;34335;51.566;6.994;2023-05-29T04:03:43;2.88;;;0.85;;
48552;SDS011;34335;51.566;6.994;2023-05-29T04:06:10;7.47;;;1.52;;
48552;SDS011;34335;51.566;6.994;2023-05-29T04:08:36;6.82;;;1.33;;
48552;SDS011;34335;51.566;6.994;2023-05-29T04:11:01;3.60;;;0.75;;
48552;SDS011;34335;51.566;6.994;2023-05-29T04:13:28;3.60;;;0.98;;
48552;SDS011;34335;51.566;6.994;2023-05-29T04:15:53;5.00;;;0.95;;
48552;SDS011;34335;51.566;6.994;2023-05-29T04:18:19;6.32;;;0.70;;
48552;SDS011;34335;51.566;6.994;2023-05-29T04:20:45;3.95;;;1.08;;
48552;SDS011;34335;51.566;6.994;2023-05-29T04:23:12;4.35;;;1.00;;
48552;SDS011;34335;51.566;6.994;2023-05-29T04:25:37;2.08;;;0.75;;
48552;SDS011;34335;51.566;6.994;2023-05-29T04:28:03;5.93;;;1.10;;
48552;SDS011;34335;51.566;6.994;2023-05-29T04:30:28;2.35;;;0.88;;
48552;SDS011;34335;51.566;6.994;2023-05-29T04:32:53;1.92;;;0.70;;
48552;SDS011;34335;51.566;6.994;2023-05-29T04:35:19;3.30;;;1.33;;
48552;SDS011;34335;51.566;6.994;2023-05-29T04:37:44;4.82;;;1.60;;
48552;SDS011;34335;51.566;6.994;2023-05-29T04:40:11;2.03;;;0.90;;
48552;SDS011;34335;51.566;6.994;2023-05-29T04:42:36;3.15;;;1.05;;
48552;SDS011;34335;51.566;6.994;2023-05-29T04:45:03;4.10;;;1.10;;
48552;SDS011;34335;51.566;6.994;2023-05-29T04:47:31;4.97;;;1.17;;
48552;SDS011;34335;51.566;6.994;2023-05-29T04:49:58;2.90;;;1.05;;
48552;SDS011;34335;51.566;6.994;2023-05-29T04:52:24;3.60;;;0.95;;
48552;SDS011;34335;51.566;6.994;2023-05-29T04:54:50;4.57;;;1.08;;
48552;SDS011;34335;51.566;6.994;2023-05-29T04:57:15;3.35;;;0.98;;
48552;SDS011;34335;51.566;6.994;2023-05-29T04:59:41;2.30;;;0.95;;
48552;SDS011;34335;51.566;6.994;2023-05-29T05:02:06;9.63;;;1.23;;
48552;SDS011;34335;51.566;6.994;2023-05-29T05:04:32;7.78;;;0.90;;
48552;SDS011;34335;51.566;6.994;2023-05-29T05:06:57;5.35;;;1.38;;
48552;SDS011;34335;51.566;6.994;2023-05-29T05:09:22;4.80;;;1.23;;
48552;SDS011;34335;51.566;6.994;2023-05-29T05:11:48;3.55;;;0.98;;
48552;SDS011;34335;51.566;6.994;2023-05-29T05:14:13;2.30;;;0.90;;
48552;SDS011;34335;51.566;6.994;2023-05-29T05:16:39;1.73;;;0.60;;
48552;SDS011;34335;51.566;6.994;2023-05-29T05:19:04;5.17;;;1.00;;
48552;SDS011;34335;51.566;6.994;2023-05-29T05:21:30;6.07;;;0.80;;
48552;SDS011;34335;51.566;6.994;2023-05-29T05:23:56;4.80;;;1.17;;
48552;SDS011;34335;51.566;6.994;2023-05-29T05:26:21;2.20;;;1.00;;
48552;SDS011;34335;51.566;6.994;2023-05-29T05:28:47;3.58;;;0.77;;
48552;SDS011;34335;51.566;6.994;2023-05-29T05:31:12;3.53;;;1.30;;
48552;SDS011;34335;51.566;6.994;2023-05-29T05:33:38;2.58;;;0.80;;
48552;SDS011;34335;51.566;6.994;2023-05-29T05:36:03;6.97;;;1.13;;
48552;SDS011;34335;51.566;6.994;2023-05-29T05:38:28;7.15;;;1.40;;
48552;SDS011;34335;51.566;6.994;2023-05-29T05:40:54;2.22;;;0.85;;
48552;SDS011;34335;51.566;6.994;2023-05-29T05:43:20;3.35;;;0.85;;
48552;SDS011;34335;51.566;6.994;2023-05-29T05:45:47;4.75;;;1.13;;
48552;SDS011;34335;51.566;6.994;2023-05-29T05:48:12;2.30;;;1.13;;
48552;SDS011;34335;51.566;6.994;2023-05-29T05:50:37;3.47;;;0.98;;
48552;SDS011;34335;51.566;6.994;2023-05-29T05:53:02;6.27;;;0.83;;
48552;SDS011;34335;51.566;6.994;2023-05-29T05:55:28;7.33;;;1.40;;
48552;SDS011;34335;51.566;6.994;2023-05-29T05:57:53;4.17;;;1.00;;
48552;SDS011;34335;51.566;6.994;2023-05-29T06:00:20;3.92;;;0.77;;
48552;SDS011;34335;51.566;6.994;2023-05-29T06:02:47;3.17;;;1.23;;
48552;SDS011;34335;51.566;6.994;2023-05-29T06:05:13;3.83;;;1.52;;
48552;SDS011;34335;51.566;6.994;2023-05-29T06:07:38;3.67;;;1.02;;
48552;SDS011;34335;51.566;6.994;2023-05-29T06:10:03;0.40;;;0.32;;
48552;SDS011;34335;51.566;6.994;2023-05-29T06:12:29;4.18;;;1.02;;
48552;SDS011;34335;51.566;6.994;2023-05-29T06:14:55;2.35;;;1.50;;
48552;SDS011;34335;51.566;6.994;2023-05-29T06:17:20;2.35;;;1.20;;
48552;SDS011;34335;51.566;6.994;2023-05-29T06:19:46;4.82;;;1.35;;
48552;SDS011;34335;51.566;6.994;2023-05-29T06:22:12;5.30;;;1.23;;
48552;SDS011;34335;51.566;6.994;2023-05-29T06:24:37;2.90;;;0.77;;
48552;SDS011;34335;51.566;6.994;2023-05-29T06:27:02;3.20;;;0.90;;
48552;SDS011;34335;51.566;6.994;2023-05-29T06:29:28;5.40;;;1.15;;
48552;SDS011;34335;51.566;6.994;2023-05-29T06:31:53;6.13;;;1.30;;
48552;SDS011;34335;51.566;6.994;2023-05-29T06:34:18;5.93;;;0.60;;
48552;SDS011;34335;51.566;6.994;2023-05-29T06:36:44;5.27;;;1.17;;
48552;SDS011;34335;51.566;6.994;2023-05-29T06:39:09;2.95;;;0.68;;
48552;SDS011;34335;51.566;6.994;2023-05-29T06:41:35;5.32;;;1.38;;
48552;SDS011;34335;51.566;6.994;2023-05-29T06:44:00;1.48;;;0.60;;
48552;SDS011;34335;51.566;6.994;2023-05-29T06:46:26;2.65;;;0.65;;
48552;SDS011;34335;51.566;6.994;2023-05-29T06:48:51;4.23;;;1.33;;
48552;SDS011;34335;51.566;6.994;2023-05-29T06:51:17;1.42;;;0.55;;
48552;SDS011;34335;51.566;6.994;2023-05-29T06:53:42;2.58;;;1.27;;
48552;SDS011;34335;51.566;6.994;2023-05-29T06:56:08;5.93;;;1.15;;
48552;SDS011;34335;51.566;6.994;2023-05-29T06:58:33;6.75;;;0.88;;
48552;SDS011;34335;51.566;6.994;2023-05-29T07:00:59;1.92;;;0.47;;
48552;SDS011;34335;51.566;6.994;2023-05-29T07:03:25;4.90;;;0.90;;
48552;SDS011;34335;51.566;6.994;2023-05-29T07:05:51;2.65;;;1.20;;
48552;SDS011;34335;51.566;6.994;2023-05-29T07:08:17;5.00;;;1.20;;
48552;SDS011;34335;51.566;6.994;2023-05-29T07:10:43;2.40;;;1.02;;
48552;SDS011;34335;51.566;6.994;2023-05-29T07:13:09;1.02;;;0.45;;
48552;SDS011;34335;51.566;6.994;2023-05-29T07:15:34;3.63;;;0.88;;
48552;SDS011;34335;51.566;6.994;2023-05-29T07:17:59;5.93;;;0.82;;
48552;SDS011;34335;51.566;6.994;2023-05-29T07:20:25;3.42;;;1.20;;
48552;SDS011;34335;51.566;6.994;2023-05-29T07:22:50;2.03;;;0.60;;
48552;SDS011;34335;51.566;6.994;2023-05-29T07:25:16;5.40;;;1.47;;
48552;SDS011;34335;51.566;6.994;2023-05-29T07:27:41;1.80;;;0.80;;
48552;SDS011;34335;51.566;6.994;2023-05-29T07:30:07;7.80;;;1.00;;
48552;SDS011;34335;51.566;6.994;2023-05-29T07:32:32;5.43;;;0.95;;
48552;SDS011;34335;51.566;6.994;2023-05-29T07:34:58;3.97;;;0.80;;
48552;SDS011;34335;51.566;6.994;2023-05-29T07:37:23;3.25;;;1.50;;
48552;SDS011;34335;51.566;6.994;2023-05-29T07:39:49;3.17;;;0.80;;
48552;SDS011;34335;51.566;6.994;2023-05-29T07:42:14;3.53;;;1.30;;
48552;SDS011;34335;51.566;6.994;2023-05-29T07:44:40;3.43;;;0.97;;
48552;SDS011;34335;51.566;6.994;2023-05-29T07:47:07;6.32;;;0.63;;
48552;SDS011;34335;51.566;6.994;2023-05-29T07:49:33;6.18;;;0.80;;
48552;SDS011;34335;51.566;6.994;2023-05-29T07:51:58;1.92;;;0.80;;
48552;SDS011;34335;51.566;6.994;2023-05-29T07:54:24;3.20;;;1.05;;
48552;SDS011;34335;51.566;6.994;2023-05-29T07:56:49;3.70;;;0.93;;
48552;SDS011;34335;51.566;6.994;2023-05-29T07:59:15;4.80;;;0.93;;
48552;SDS011;34335;51.566;6.994;2023-05-29T08:01:40;3.80;;;0.98;;
48552;SDS011;34335;51.566;6.994;2023-05-29T08:04:05;2.20;;;0.60;;
48552;SDS011;34335;51.566;6.994;2023-05-29T08:06:31;3.28;;;1.05;;
48552;SDS011;34335;51.566;6.994;2023-05-29T08:08:59;5.95;;;0.77;;
48552;SDS011;34335;51.566;6.994;2023-05-29T08:11:24;8.65;;;1.60;;
48552;SDS011;34335;51.566;6.994;2023-05-29T08:13:50;2.00;;;0.77;;
48552;SDS011;34335;51.566;6.994;2023-05-29T08:16:15;3.35;;;0.75;;
48552;SDS011;34335;51.566;6.994;2023-05-29T08:18:41;2.95;;;1.15;;
48552;SDS011;34335;51.566;6.994;2023-05-29T08:21:07;4.35;;;0.98;;
48552;SDS011;34335;51.566;6.994;2023-05-29T08:23:34;6.03;;;1.13;;
48552;SDS011;34335;51.566;6.994;2023-05-29T08:25:59;1.92;;;0.70;;
48552;SDS011;34335;51.566;6.994;2023-05-29T08:28:25;3.45;;;1.10;;
48552;SDS011;34335;51.566;6.994;2023-05-29T08:30:51;5.18;;;0.95;;
48552;SDS011;34335;51.566;6.994;2023-05-29T08:33:17;2.67;;;0.88;;
48552;SDS011;34335;51.566;6.994;2023-05-29T08:35:42;5.77;;;1.20;;
48552;SDS011;34335;51.566;6.994;2023-05-29T08:38:08;5.70;;;0.93;;
48552;SDS011;34335;51.566;6.994;2023-05-29T08:40:33;2.40;;;0.73;;
48552;SDS011;34335;51.566;6.994;2023-05-29T08:43:20;2.97;;;1.10;;
48552;SDS011;34335;51.566;6.994;2023-05-29T08:45:47;1.58;;;0.60;;
48552;SDS011;34335;51.566;6.994;2023-05-29T08:48:17;1.95;;;0.70;;
48552;SDS011;34335;51.566;6.994;2023-05-29T08:50:44;8.82;;;1.55;;
48552;SDS011;34335;51.566;6.994;2023-05-29T08:53:14;2.55;;;0.70;;
48552;SDS011;34335;51.566;6.994;2023-05-29T08:55:43;3.03;;;1.02;;
48552;SDS011;34335;51.566;6.994;2023-05-29T08:58:11;5.47;;;1.17;;
48552;SDS011;34335;51.566;6.994;2023-05-29T09:00:36;3.35;;;0.80;;
48552;SDS011;34335;51.566;6.994;2023-05-29T09:03:02;2.23;;;1.13;;
48552;SDS011;34335;51.566;6.994;2023-05-29T09:05:28;1.27;;;0.47;;
48552;SDS011;34335;51.566;6.994;2023-05-29T09:07:54;2.50;;;0.90;;
48552;SDS011;34335;51.566;6.994;2023-05-29T09:10:20;6.22;;;1.30;;
48552;SDS011;34335;51.566;6.994;2023-05-29T09:12:47;1.42;;;0.75;;
48552;SDS011;34335;51.566;6.994;2023-05-29T09:15:20;2.03;;;0.70;;
48552;SDS011;34335;51.566;6.994;2023-05-29T09:17:50;5.10;;;1.40;;
48552;SDS011;34335;51.566;6.994;2023-05-29T09:20:17;6.60;;;1.30;;
48552;SDS011;34335;51.566;6.994;2023-05-29T09:25:19;2.97;;;1.38;;
48552;SDS011;34335;51.566;6.994;2023-05-29T09:27:47;4.75;;;1.02;;
48552;SDS011;34335;51.566;6.994;2023-05-29T09:30:30;2.67;;;1.13;;
48552;SDS011;34335;51.566;6.994;2023-05-29T09:35:38;3.00;;;1.25;;
48552;SDS011;34335;51.566;6.994;2023-05-29T09:38:05;1.77;;;0.82;;
48552;SDS011;34335;51.566;6.994;2023-05-29T09:40:32;1.85;;;0.98;;
48552;SDS011;34335;51.566;6.994;2023-05-29T09:43:02;4.82;;;1.30;;
48552;SDS011;34335;51.566;6.994;2023-05-29T09:45:39;2.15;;;1.00;;
48552;SDS011;34335;51.566;6.994;2023-05-29T09:48:17;3.03;;;1.00;;
48552;SDS011;34335;51.566;6.994;2023-05-29T09:50:44;6.03;;;1.00;;
48552;SDS011;34335;51.566;6.994;2023-05-29T09:53:20;2.65;;;0.60;;
48552;SDS011;34335;51.566;6.994;2023-05-29T09:55:46;3.10;;;1.48;;
48552;SDS011;34335;51.566;6.994;2023-05-29T09:58:13;6.47;;;2.05;;
48552;SDS011;34335;51.566;6.994;2023-05-29T10:00:40;3.88;;;1.08;;
48552;SDS011;34335;51.566;6.994;2023-05-29T10:03:06;6.68;;;1.20;;
48552;SDS011;34335;51.566;6.994;2023-05-29T10:05:32;5.60;;;1.60;;
48552;SDS011;34335;51.566;6.994;2023-05-29T10:07:57;4.57;;;1.23;;
48552;SDS011;34335;51.566;6.994;2023-05-29T10:10:26;8.50;;;1.17;;
48552;SDS011;34335;51.566;6.994;2023-05-29T10:12:53;4.70;;;1.02;;
48552;SDS011;34335;51.566;6.994;2023-05-29T10:15:19;4.80;;;1.80;;
48552;SDS011;34335;51.566;6.994;2023-05-29T10:17:50;4.97;;;1.00;;
48552;SDS011;34335;51.566;6.994;2023-05-29T10:20:37;2.85;;;1.17;;
48552;SDS011;34335;51.566;6.994;2023-05-29T10:23:03;3.80;;;1.20;;
48552;SDS011;34335;51.566;6.994;2023-05-29T10:25:30;4.68;;;1.10;;
48552;SDS011;34335;51.566;6.994;2023-05-29T10:27:58;8.45;;;1.30;;
48552;SDS011;34335;51.566;6.994;2023-05-29T10:30:27;2.80;;;0.68;;
48552;SDS011;34335;51.566;6.994;2023-05-29T10:38:44;1.63;;;0.60;;
48552;SDS011;34335;51.566;6.994;2023-05-29T10:43:55;4.75;;;0.98;;
48552;SDS011;34335;51.566;6.994;2023-05-29T10:46:20;4.70;;;1.13;;
48552;SDS011;34335;51.566;6.994;2023-05-29T10:48:49;6.32;;;1.15;;
48552;SDS011;34335;51.566;6.994;2023-05-29T10:51:25;3.35;;;0.90;;
48552;SDS011;34335;51.566;6.994;2023-05-29T10:53:51;7.10;;;1.95;;
48552;SDS011;34335;51.566;6.994;2023-05-29T10:56:21;6.03;;;1.85;;
48552;SDS011;34335;51.566;6.994;2023-05-29T10:58:55;2.25;;;0.95;;
48552;SDS011;34335;51.566;6.994;2023-05-29T11:01:24;4.60;;;1.02;;
48552;SDS011;34335;51.566;6.994;2023-05-29T11:03:53;3.85;;;1.45;;
48552;SDS011;34335;51.566;6.994;2023-05-29T11:06:20;3.53;;;1.10;;
48552;SDS011;34335;51.566;6.994;2023-05-29T11:08:46;4.68;;;1.55;;
48552;SDS011;34335;51.566;6.994;2023-05-29T11:11:38;4.38;;;1.05;;
48552;SDS011;34335;51.566;6.994;2023-05-29T11:14:06;9.32;;;1.23;;
48552;SDS011;34335;51.566;6.994;2023-05-29T11:18:58;2.53;;;1.10;;
48552;SDS011;34335;51.566;6.994;2023-05-29T11:21:33;4.65;;;1.33;;
48552;SDS011;34335;51.566;6.994;2023-05-29T11:24:25;4.03;;;1.33;;
48552;SDS011;34335;51.566;6.994;2023-05-29T11:26:52;3.40;;;1.23;;
48552;SDS011;34335;51.566;6.994;2023-05-29T11:29:21;4.53;;;1.05;;
48552;SDS011;34335;51.566;6.994;2023-05-29T11:31:49;3.60;;;1.67;;
48552;SDS011;34335;51.566;6.994;2023-05-29T11:34:19;1.80;;;1.02;;
48552;SDS011;34335;51.566;6.994;2023-05-29T11:36:46;3.25;;;1.10;;
48552;SDS011;34335;51.566;6.994;2023-05-29T11:39:13;2.53;;;0.85;;
48552;SDS011;34335;51.566;6.994;2023-05-29T11:41:39;2.00;;;1.10;;
48552;SDS011;34335;51.566;6.994;2023-05-29T11:44:04;4.22;;;1.10;;
48552;SDS011;34335;51.566;6.994;2023-05-29T11:46:33;3.72;;;1.00;;
48552;SDS011;34335;51.566;6.994;2023-05-29T11:48:59;3.17;;;1.25;;
48552;SDS011;34335;51.566;6.994;2023-05-29T11:51:25;2.72;;;0.80;;
48552;SDS011;34335;51.566;6.994;2023-05-29T11:53:51;6.28;;;1.20;;
48552;SDS011;34335;51.566;6.994;2023-05-29T11:56:22;1.98;;;0.93;;
48552;SDS011;34335;51.566;6.994;2023-05-29T11:58:48;3.03;;;1.25;;
48552;SDS011;34335;51.566;6.994;2023-05-29T12:01:16;3.78;;;0.93;;
48552;SDS011;34335;51.566;6.994;2023-05-29T12:03:42;3.58;;;1.38;;
48552;SDS011;34335;51.566;6.994;2023-05-29T12:06:08;4.13;;;1.15;;
48552;SDS011;34335;51.566;6.994;2023-05-29T12:08:35;3.72;;;0.93;;
48552;SDS011;34335;51.566;6.994;2023-05-29T12:11:00;1.85;;;0.70;;
48552;SDS011;34335;51.566;6.994;2023-05-29T12:13:26;6.00;;;1.57;;
48552;SDS011;34335;51.566;6.994;2023-05-29T12:15:52;1.98;;;0.82;;
48552;SDS011;34335;51.566;6.994;2023-05-29T12:18:19;3.83;;;1.20;;
48552;SDS011;34335;51.566;6.994;2023-05-29T12:20:44;4.18;;;1.20;;
48552;SDS011;34335;51.566;6.994;2023-05-29T12:23:10;3.47;;;0.88;;
48552;SDS011;34335;51.566;6.994;2023-05-29T12:25:37;4.95;;;1.70;;
48552;SDS011;34335;51.566;6.994;2023-05-29T12:28:02;10.52;;;2.22;;
48552;SDS011;34335;51.566;6.994;2023-05-29T12:30:27;8.40;;;1.65;;
48552;SDS011;34335;51.566;6.994;2023-05-29T12:32:53;7.07;;;2.72;;
48552;SDS011;34335;51.566;6.994;2023-05-29T12:35:19;7.47;;;1.15;;
48552;SDS011;34335;51.566;6.994;2023-05-29T12:37:45;4.22;;;0.75;;
48552;SDS011;34335;51.566;6.994;2023-05-29T12:40:17;4.13;;;1.00;;
48552;SDS011;34335;51.566;6.994;2023-05-29T12:42:44;2.55;;;0.98;;
48552;SDS011;34335;51.566;6.994;2023-05-29T12:45:09;5.45;;;1.55;;
48552;SDS011;34335;51.566;6.994;2023-05-29T12:47:36;0.90;;;0.50;;
48552;SDS011;34335;51.566;6.994;2023-05-29T12:50:15;3.47;;;0.93;;
48552;SDS011;34335;51.566;6.994;2023-05-29T12:52:46;4.53;;;1.10;;
48552;SDS011;34335;51.566;6.994;2023-05-29T12:55:11;3.47;;;0.90;;
48552;SDS011;34335;51.566;6.994;2023-05-29T12:57:36;4.37;;;1.30;;
48552;SDS011;34335;51.566;6.994;2023-05-29T13:00:02;3.17;;;1.20;;
48552;SDS011;34335;51.566;6.994;2023-05-29T13:02:27;7.45;;;0.75;;
48552;SDS011;34335;51.566;6.994;2023-05-29T13:04:54;2.88;;;1.20;;
48552;SDS011;34335;51.566;6.994;2023-05-29T13:07:19;4.00;;;1.75;;
48552;SDS011;34335;51.566;6.994;2023-05-29T13:09:45;4.30;;;0.97;;
48552;SDS011;34335;51.566;6.994;2023-05-29T13:12:10;2.28;;;1.00;;
48552;SDS011;34335;51.566;6.994;2023-05-29T13:14:35;6.63;;;1.30;;
48552;SDS011;34335;51.566;6.994;2023-05-29T13:17:01;1.67;;;0.82;;
48552;SDS011;34335;51.566;6.994;2023-05-29T13:19:26;2.23;;;1.03;;
48552;SDS011;34335;51.566;6.994;2023-05-29T13:21:51;2.30;;;1.13;;
48552;SDS011;34335;51.566;6.994;2023-05-29T13:24:16;2.83;;;0.93;;
48552;SDS011;34335;51.566;6.994;2023-05-29T13:26:42;4.70;;;1.20;;
48552;SDS011;34335;51.566;6.994;2023-05-29T13:29:07;3.23;;;1.07;;
48552;SDS011;34335;51.566;6.994;2023-05-29T13:31:32;3.60;;;0.97;;
48552;SDS011;34335;51.566;6.994;2023-05-29T13:33:58;1.87;;;0.90;;
48552;SDS011;34335;51.566;6.994;2023-05-29T13:36:23;2.17;;;1.13;;
48552;SDS011;34335;51.566;6.994;2023-05-29T13:38:48;2.97;;;1.20;;
48552;SDS011;34335;51.566;6.994;2023-05-29T13:41:13;1.90;;;0.90;;
48552;SDS011;34335;51.566;6.994;2023-05-29T13:43:39;3.10;;;1.00;;
48552;SDS011;34335;51.566;6.994;2023-05-29T13:46:04;2.28;;;1.10;;
48552;SDS011;34335;51.566;6.994;2023-05-29T13:48:30;5.53;;;1.70;;
48552;SDS011;34335;51.566;6.994;2023-05-29T13:50:55;3.67;;;1.45;;
48552;SDS011;34335;51.566;6.994;2023-05-29T13:53:20;3.63;;;1.63;;
48552;SDS011;34335;51.566;6.994;2023-05-29T13:55:46;4.90;;;1.43;;
48552;SDS011;34335;51.566;6.994;2023-05-29T13:58:11;4.53;;;1.07;;
48552;SDS011;34335;51.566;6.994;2023-05-29T14:00:36;7.13;;;2.33;;
48552;SDS011;34335;51.566;6.994;2023-05-29T14:03:01;7.77;;;2.23;;
48552;SDS011;34335;51.566;6.994;2023-05-29T14:05:27;3.78;;;1.13;;
48552;SDS011;34335;51.566;6.994;2023-05-29T14:07:52;4.70;;;2.20;;
48552;SDS011;34335;51.566;6.994;2023-05-29T14:10:17;3.10;;;1.47;;
48552;SDS011;34335;51.566;6.994;2023-05-29T14:12:43;5.57;;;1.97;;
48552;SDS011;34335;51.566;6.994;2023-05-29T14:15:08;2.57;;;1.07;;
48552;SDS011;34335;51.566;6.994;2023-05-29T14:17:35;3.42;;;1.55;;
48552;SDS011;34335;51.566;6.994;2023-05-29T14:20:00;9.40;;;1.87;;
48552;SDS011;34335;51.566;6.994;2023-05-29T14:22:29;4.15;;;1.55;;
48552;SDS011;34335;51.566;6.994;2023-05-29T14:24:54;4.87;;;1.47;;
48552;SDS011;34335;51.566;6.994;2023-05-29T14:27:20;4.60;;;2.45;;
48552;SDS011;34335;51.566;6.994;2023-05-29T14:29:46;7.00;;;3.42;;
48552;SDS011;34335;51.566;6.994;2023-05-29T14:32:11;4.13;;;2.30;;
48552;SDS011;34335;51.566;6.994;2023-05-29T14:34:37;4.93;;;2.03;;
48552;SDS011;34335;51.566;6.994;2023-05-29T14:37:03;5.47;;;2.70;;
48552;SDS011;34335;51.566;6.994;2023-05-29T14:39:28;9.32;;;4.45;;
48552;SDS011;34335;51.566;6.994;2023-05-29T14:41:53;13.17;;;5.63;;
48552;SDS011;34335;51.566;6.994;2023-05-29T14:44:19;7.77;;;3.97;;
48552;SDS011;34335;51.566;6.994;2023-05-29T14:46:45;4.13;;;1.63;;
48552;SDS011;34335;51.566;6.994;2023-05-29T14:49:10;6.78;;;3.35;;
48552;SDS011;34335;51.566;6.994;2023-05-29T14:51:35;9.97;;;3.70;;
48552;SDS011;34335;51.566;6.994;2023-05-29T14:54:01;6.00;;;2.92;;
48552;SDS011;34335;51.566;6.994;2023-05-29T14:56:26;15.05;;;6.07;;
48552;SDS011;34335;51.566;6.994;2023-05-29T14:58:52;7.93;;;4.40;;
48552;SDS011;34335;51.566;6.994;2023-05-29T15:01:17;5.63;;;3.00;;
48552;SDS011;34335;51.566;6.994;2023-05-29T15:03:42;3.50;;;1.83;;
48552;SDS011;34335;51.566;6.994;2023-05-29T15:06:09;4.20;;;1.27;;
48552;SDS011;34335;51.566;6.994;2023-05-29T15:08:36;6.60;;;1.50;;
48552;SDS011;34335;51.566;6.994;2023-05-29T15:11:02;2.97;;;1.45;;